createdAt,value
2022-10-11T00:00:10.959Z,76.30
2022-10-11T00:02:37.690Z,76.50
2022-10-11T00:05:04.855Z,76.50
2022-10-11T00:07:31.660Z,76.50
2022-10-11T00:09:58.335Z,76.50
2022-10-11T00:12:25.236Z,76.60
2022-10-11T00:14:53.416Z,76.70
2022-10-11T00:17:20.131Z,76.70
2022-10-11T00:19:46.946Z,76.70
2022-10-11T00:22:13.714Z,76.70
2022-10-11T00:24:40.409Z,76.80
2022-10-11T00:27:10.341Z,76.80
2022-10-11T00:29:40.772Z,76.90
2022-10-11T00:32:07.512Z,77.00
2022-10-11T00:34:34.225Z,76.90
2022-10-11T00:37:01.237Z,77.00
2022-10-11T00:39:28.422Z,77.00
2022-10-11T00:41:55.460Z,77.00
2022-10-11T00:44:27.924Z,77.00
2022-10-11T00:47:02.739Z,77.80
2022-10-11T00:49:35.371Z,77.00
2022-10-11T00:52:12.905Z,77.00
2022-10-11T00:54:43.174Z,77.10
2022-10-11T00:57:17.618Z,77.10
2022-10-11T00:59:52.547Z,77.10
2022-10-11T01:02:20.661Z,77.00
2022-10-11T01:04:47.894Z,76.90
2022-10-11T01:07:14.759Z,76.90
2022-10-11T01:09:41.552Z,76.90
2022-10-11T01:12:17.394Z,77.80
2022-10-11T01:15:05.524Z,76.80
2022-10-11T01:17:55.666Z,77.00
2022-10-11T01:20:31.947Z,77.00
2022-10-11T01:23:15.414Z,77.10
2022-10-11T01:26:00.159Z,77.10
2022-10-11T01:28:45.466Z,77.20
2022-10-11T01:31:21.884Z,77.10
2022-10-11T01:34:03.450Z,77.10
2022-10-11T01:36:51.723Z,77.20
2022-10-11T01:39:29.252Z,77.30
2022-10-11T01:42:02.732Z,77.30
2022-10-11T01:44:31.582Z,77.20
2022-10-11T01:46:58.252Z,77.30
2022-10-11T01:49:25.076Z,77.30
2022-10-11T01:51:55.620Z,77.40
2022-10-11T01:54:25.417Z,78.30
2022-10-11T01:57:13.456Z,77.50
2022-10-11T01:59:45.624Z,77.40
2022-10-11T02:02:38.341Z,77.50
2022-10-11T02:05:20.300Z,77.30
2022-10-11T02:07:56.524Z,77.50
2022-10-11T02:10:35.095Z,77.50
2022-10-11T02:13:08.051Z,77.60
2022-10-11T02:15:38.651Z,77.50
2022-10-11T02:18:12.708Z,77.60
2022-10-11T02:20:42.620Z,77.70
2022-10-11T02:23:14.345Z,77.60
2022-10-11T02:25:42.713Z,77.70
2022-10-11T02:28:15.023Z,77.60
2022-10-11T02:30:44.439Z,77.60
2022-10-11T02:33:17.404Z,77.70
2022-10-11T02:35:48.792Z,77.80
2022-10-11T02:38:24.380Z,77.80
2022-10-11T02:40:57.424Z,77.90
2022-10-11T02:43:32.985Z,77.90
2022-10-11T02:46:01.855Z,77.90
2022-10-11T02:48:29.549Z,77.80
2022-10-11T02:50:57.735Z,77.80
2022-10-11T02:53:26.266Z,78.00
2022-10-11T02:55:55.225Z,78.00
2022-10-11T02:58:22.811Z,78.10
2022-10-11T03:00:49.706Z,78.10
2022-10-11T03:03:16.687Z,78.10
2022-10-11T03:05:43.982Z,78.20
2022-10-11T03:08:15.418Z,78.20
2022-10-11T03:10:42.691Z,78.30
2022-10-11T03:13:09.488Z,78.30
2022-10-11T03:15:36.247Z,78.30
2022-10-11T03:18:03.287Z,78.30
2022-10-11T03:20:30.128Z,78.40
2022-10-11T03:22:56.904Z,78.40
2022-10-11T03:25:23.569Z,78.40
2022-10-11T03:27:50.539Z,78.40
2022-10-11T03:30:18.516Z,78.50
2022-10-11T03:32:45.512Z,78.50
2022-10-11T03:35:18.735Z,78.40
2022-10-11T03:37:45.550Z,78.50
2022-10-11T03:40:13.004Z,78.50
2022-10-11T03:42:40.276Z,78.70
2022-10-11T03:45:08.919Z,78.70
2022-10-11T03:47:39.995Z,78.70
2022-10-11T03:50:08.847Z,78.70
2022-10-11T03:52:36.606Z,78.70
2022-10-11T03:55:04.099Z,78.70
2022-10-11T03:57:30.859Z,78.50
2022-10-11T03:59:57.860Z,78.50
2022-10-11T04:02:24.783Z,78.50
2022-10-11T04:04:51.571Z,78.60
2022-10-11T04:07:18.651Z,78.60
2022-10-11T04:09:45.471Z,78.60
2022-10-11T04:12:12.569Z,78.50
2022-10-11T04:14:39.328Z,78.50
2022-10-11T04:17:06.174Z,78.50
2022-10-11T04:19:35.774Z,78.50
2022-10-11T04:22:06.783Z,78.40
2022-10-11T04:24:33.864Z,78.50
2022-10-11T04:27:00.606Z,78.60
2022-10-11T04:29:32.149Z,78.60
2022-10-11T04:31:59.737Z,78.60
2022-10-11T04:34:26.472Z,78.60
2022-10-11T04:36:53.202Z,78.50
2022-10-11T04:39:20.086Z,78.60
2022-10-11T04:41:49.880Z,78.60
2022-10-11T04:44:16.621Z,78.60
2022-10-11T04:46:43.351Z,78.60
2022-10-11T04:49:10.210Z,78.50
2022-10-11T04:51:39.491Z,78.60
2022-10-11T04:54:06.366Z,78.50
2022-10-11T04:56:33.285Z,78.50
2022-10-11T04:58:59.972Z,78.60
2022-10-11T05:01:26.727Z,78.70
2022-10-11T05:03:53.468Z,78.70
2022-10-11T05:06:20.328Z,78.70
2022-10-11T05:08:47.068Z,78.70
2022-10-11T05:11:17.319Z,78.70
2022-10-11T05:13:45.381Z,78.70
2022-10-11T05:16:13.305Z,78.60
2022-10-11T05:18:40.577Z,78.60
2022-10-11T05:21:23.798Z,78.60
2022-10-11T05:23:51.915Z,78.60
2022-10-11T05:26:19.902Z,78.50
2022-10-11T05:28:47.618Z,78.40
2022-10-11T05:31:15.038Z,78.40
2022-10-11T05:33:42.117Z,78.50
2022-10-11T05:36:09.797Z,78.60
2022-10-11T05:38:38.284Z,78.50
2022-10-11T05:41:06.339Z,78.50
2022-10-11T05:43:33.513Z,78.50
2022-10-11T05:46:00.292Z,78.60
2022-10-11T05:48:28.493Z,78.50
2022-10-11T05:51:03.291Z,78.60
2022-10-11T05:53:30.466Z,78.70
2022-10-11T05:55:57.896Z,78.70
2022-10-11T05:58:25.192Z,78.80
2022-10-11T06:00:52.119Z,78.80
2022-10-11T06:03:22.168Z,78.80
2022-10-11T06:05:56.532Z,78.80
2022-10-11T06:08:23.632Z,78.80
2022-10-11T06:10:50.402Z,78.90
2022-10-11T06:13:17.085Z,78.90
2022-10-11T06:15:43.865Z,78.90
2022-10-11T06:18:10.592Z,78.90
2022-10-11T06:20:37.498Z,78.90
2022-10-11T06:23:04.272Z,79.10
2022-10-11T06:25:31.100Z,79.20
2022-10-11T06:27:57.877Z,79.20
2022-10-11T06:30:25.053Z,79.20
2022-10-11T06:32:51.791Z,79.30
2022-10-11T06:35:18.555Z,79.20
2022-10-11T06:37:45.252Z,79.30
2022-10-11T06:40:12.345Z,79.30
2022-10-11T06:42:39.227Z,79.40
2022-10-11T06:45:06.916Z,79.40
2022-10-11T06:47:33.756Z,79.60
2022-10-11T06:50:00.532Z,79.50
2022-10-11T06:52:27.317Z,79.50
2022-10-11T06:54:53.990Z,79.70
2022-10-11T06:57:20.751Z,79.70
2022-10-11T06:59:47.551Z,79.70
2022-10-11T07:02:16.878Z,79.70
2022-10-11T07:04:43.626Z,79.90
2022-10-11T07:07:13.739Z,79.90
2022-10-11T07:09:40.556Z,80.00
2022-10-11T07:12:07.885Z,80.00
2022-10-11T07:14:34.636Z,80.00
2022-10-11T07:17:01.528Z,80.00
2022-10-11T07:19:28.320Z,80.00
2022-10-11T07:21:57.747Z,80.00
2022-10-11T07:24:24.837Z,80.10
2022-10-11T07:26:51.847Z,80.00
2022-10-11T07:29:18.861Z,80.10
2022-10-11T07:31:45.823Z,80.20
2022-10-11T07:34:12.761Z,80.20
2022-10-11T07:36:39.596Z,80.20
2022-10-11T07:39:08.175Z,80.30
2022-10-11T07:41:35.418Z,80.40
2022-10-11T07:44:03.289Z,80.40
2022-10-11T07:46:30.519Z,80.40
2022-10-11T07:48:57.667Z,80.40
2022-10-11T07:51:25.125Z,80.40
2022-10-11T07:53:54.530Z,80.40
2022-10-11T07:56:29.288Z,80.50
2022-10-11T07:58:59.452Z,80.50
2022-10-11T08:01:27.802Z,81.10
2022-10-11T08:03:56.882Z,80.00
2022-10-11T08:06:27.312Z,78.20
2022-10-11T08:08:54.097Z,76.60
2022-10-11T08:11:33.070Z,75.70
2022-10-11T08:14:00.914Z,74.70
2022-10-11T08:16:27.812Z,73.60
2022-10-11T08:18:57.694Z,72.10
2022-10-11T08:21:24.700Z,70.90
2022-10-11T08:23:51.382Z,69.80
2022-10-11T08:26:18.634Z,68.80
2022-10-11T08:28:45.636Z,68.40
2022-10-11T08:31:14.414Z,68.10
2022-10-11T08:33:41.781Z,68.20
2022-10-11T08:36:09.702Z,68.40
2022-10-11T08:38:37.660Z,68.40
2022-10-11T08:41:34.037Z,68.70
2022-10-11T08:44:20.292Z,69.10
2022-10-11T08:46:50.714Z,69.70
2022-10-11T08:49:20.944Z,70.30
2022-10-11T08:52:00.169Z,70.90
2022-10-11T08:54:45.386Z,71.10
2022-10-11T08:57:19.675Z,71.50
2022-10-11T08:59:49.012Z,71.70
2022-10-11T09:03:07.531Z,71.80
2022-10-11T09:05:37.581Z,71.90
2022-10-11T09:08:19.642Z,72.10
2022-10-11T09:11:07.272Z,71.80
2022-10-11T09:13:52.623Z,71.10
2022-10-11T09:16:43.876Z,70.90
2022-10-11T09:19:27.679Z,70.60
2022-10-11T09:22:30.572Z,70.80
2022-10-11T09:24:57.619Z,70.20
2022-10-11T09:27:57.864Z,70.00
2022-10-11T09:30:21.651Z,69.50
2022-10-11T09:32:54.360Z,69.70
2022-10-11T09:35:23.075Z,69.20
2022-10-11T09:38:04.649Z,68.90
2022-10-11T09:41:13.730Z,68.50
2022-10-11T09:43:40.695Z,68.30
2022-10-11T09:46:38.705Z,68.00
2022-10-11T09:49:12.091Z,67.70
2022-10-11T09:51:46.994Z,67.30
2022-10-11T09:54:13.718Z,67.10
2022-10-11T09:56:43.793Z,67.00
2022-10-11T09:59:28.687Z,66.90
2022-10-11T10:02:20.709Z,66.40
2022-10-11T10:05:14.854Z,66.30
2022-10-11T10:08:08.231Z,66.30
2022-10-11T10:10:57.063Z,66.00
2022-10-11T10:13:43.932Z,65.80
2022-10-11T10:16:22.639Z,65.10
2022-10-11T10:18:54.007Z,65.70
2022-10-11T10:21:45.468Z,64.80
2022-10-11T10:24:42.494Z,64.10
2022-10-11T10:27:23.381Z,64.60
2022-10-11T10:30:13.438Z,63.70
2022-10-11T10:32:48.520Z,63.60
2022-10-11T10:35:26.189Z,63.40
2022-10-11T10:38:12.253Z,63.50
2022-10-11T10:40:58.151Z,62.50
2022-10-11T10:43:36.522Z,63.00
2022-10-11T10:46:18.341Z,62.10
2022-10-11T10:52:13.101Z,61.30
2022-10-11T10:55:04.224Z,61.40
2022-10-11T10:58:09.668Z,60.90
2022-10-11T11:00:47.938Z,60.30
2022-10-11T11:03:36.380Z,59.90
2022-10-11T11:06:07.702Z,59.50
2022-10-11T11:08:44.152Z,60.10
2022-10-11T11:12:01.564Z,60.40
2022-10-11T11:14:57.889Z,60.80
2022-10-11T11:17:33.281Z,60.00
2022-10-11T11:20:29.462Z,58.90
2022-10-11T11:23:08.559Z,59.00
2022-10-11T11:25:56.064Z,59.10
2022-10-11T11:28:41.013Z,59.20
2022-10-11T11:31:38.946Z,58.60
2022-10-11T11:34:28.649Z,58.70
2022-10-11T11:37:06.988Z,59.40
2022-10-11T11:39:44.691Z,58.30
2022-10-11T11:42:21.462Z,58.50
2022-10-11T11:44:51.986Z,58.60
2022-10-11T11:47:23.396Z,57.50
2022-10-11T11:50:06.285Z,56.90
2022-10-11T11:52:44.804Z,56.90
2022-10-11T11:55:28.009Z,57.50
2022-10-11T11:58:34.509Z,57.80
2022-10-11T12:01:48.414Z,57.00
2022-10-11T12:04:28.669Z,56.50
2022-10-11T12:07:15.920Z,56.90
2022-10-11T12:09:46.492Z,56.60
2022-10-11T12:12:36.407Z,56.60
2022-10-11T12:15:26.392Z,55.90
2022-10-11T12:17:59.812Z,56.30
2022-10-11T12:20:41.297Z,56.10
2022-10-11T12:23:30.051Z,55.50
2022-10-11T12:26:27.509Z,56.00
2022-10-11T12:29:28.239Z,56.00
2022-10-11T12:32:05.234Z,56.20
2022-10-11T12:34:35.978Z,55.30
2022-10-11T12:37:17.767Z,54.60
2022-10-11T12:39:59.620Z,55.40
2022-10-11T12:42:36.548Z,56.00
2022-10-11T12:45:15.358Z,54.80
2022-10-11T12:47:52.136Z,55.10
2022-10-11T12:50:33.728Z,55.00
2022-10-11T12:53:03.163Z,53.80
2022-10-11T12:55:46.501Z,53.00
2022-10-11T12:58:24.536Z,52.70
2022-10-11T13:00:51.803Z,52.40
2022-10-11T13:03:57.001Z,53.60
2022-10-11T13:06:32.223Z,52.90
2022-10-11T13:09:11.248Z,52.70
2022-10-11T13:11:57.253Z,52.10
2022-10-11T13:14:29.174Z,52.00
2022-10-11T13:17:17.585Z,51.70
2022-10-11T13:19:44.458Z,51.50
2022-10-11T13:22:20.793Z,51.70
2022-10-11T13:24:47.569Z,51.10
2022-10-11T13:27:23.726Z,52.00
2022-10-11T13:29:59.306Z,51.20
2022-10-11T13:32:31.760Z,51.10
2022-10-11T13:35:05.614Z,50.60
2022-10-11T13:37:42.563Z,51.10
2022-10-11T13:40:16.307Z,51.40
2022-10-11T13:42:49.432Z,50.90
2022-10-11T13:45:20.481Z,51.80
2022-10-11T13:47:48.828Z,51.10
2022-10-11T13:50:22.584Z,51.00
2022-10-11T13:53:00.294Z,50.90
2022-10-11T13:55:36.785Z,50.30
2022-10-11T13:58:14.981Z,49.80
2022-10-11T14:00:53.666Z,49.50
2022-10-11T14:03:21.305Z,50.00
2022-10-11T14:05:59.728Z,49.80
2022-10-11T14:08:48.077Z,49.50
2022-10-11T14:11:16.260Z,49.90
2022-10-11T14:13:47.801Z,49.70
2022-10-11T14:16:29.846Z,48.90
2022-10-11T14:18:59.512Z,50.10
2022-10-11T14:21:46.219Z,49.70
2022-10-11T14:24:13.808Z,50.20
2022-10-11T14:26:43.831Z,50.00
2022-10-11T14:29:20.813Z,49.30
2022-10-11T14:31:47.638Z,49.90
2022-10-11T14:34:20.775Z,49.90
2022-10-11T14:36:48.510Z,48.60
2022-10-11T14:39:18.577Z,48.60
2022-10-11T14:41:46.104Z,48.90
2022-10-11T14:44:13.956Z,48.80
2022-10-11T14:46:41.468Z,48.40
2022-10-11T14:49:35.988Z,48.30
2022-10-11T14:52:05.717Z,49.00
2022-10-11T14:54:33.271Z,48.40
2022-10-11T14:57:02.613Z,48.60
2022-10-11T14:59:37.578Z,48.10
2022-10-11T15:02:07.550Z,48.50
2022-10-11T15:04:34.467Z,48.60
2022-10-11T15:07:01.674Z,48.70
2022-10-11T15:09:28.770Z,48.60
2022-10-11T15:11:56.302Z,48.50
2022-10-11T15:14:26.783Z,48.70
2022-10-11T15:16:53.745Z,48.40
2022-10-11T15:19:23.334Z,48.30
2022-10-11T15:21:51.593Z,47.50
2022-10-11T15:24:21.419Z,47.30
2022-10-11T15:26:49.426Z,47.30
2022-10-11T15:29:21.904Z,47.30
2022-10-11T15:31:49.590Z,47.70
2022-10-11T15:34:17.468Z,47.90
2022-10-11T15:36:44.433Z,48.40
2022-10-11T15:39:27.448Z,48.50
2022-10-11T15:41:54.507Z,48.70
2022-10-11T15:44:21.192Z,49.20
2022-10-11T15:46:47.999Z,49.40
2022-10-11T15:49:17.620Z,49.80
2022-10-11T15:51:44.477Z,50.00
2022-10-11T15:54:11.188Z,50.30
2022-10-11T15:56:38.145Z,50.50
2022-10-11T15:59:05.024Z,50.70
2022-10-11T16:01:31.869Z,51.00
2022-10-11T16:03:58.636Z,51.10
2022-10-11T16:06:25.503Z,51.20
2022-10-11T16:08:52.250Z,51.20
2022-10-11T16:11:19.026Z,51.30
2022-10-11T16:13:48.466Z,51.40
2022-10-11T16:16:15.290Z,52.10
2022-10-11T16:18:42.072Z,51.60
2022-10-11T16:21:11.284Z,51.60
2022-10-11T16:23:38.963Z,51.30
2022-10-11T16:26:09.279Z,51.80
2022-10-11T16:28:37.732Z,51.90
2022-10-11T16:31:09.980Z,52.10
2022-10-11T16:33:45.663Z,52.20
2022-10-11T16:36:34.529Z,52.30
2022-10-11T16:39:04.814Z,52.30
2022-10-11T16:41:31.576Z,52.60
2022-10-11T16:43:58.356Z,52.70
2022-10-11T16:46:25.451Z,52.80
2022-10-11T16:48:55.770Z,52.90
2022-10-11T16:51:24.257Z,53.10
2022-10-11T16:53:52.494Z,53.20
2022-10-11T16:56:25.149Z,53.10
2022-10-11T16:58:53.393Z,53.20
2022-10-11T17:01:21.064Z,53.30
2022-10-11T17:03:49.550Z,53.40
2022-10-11T17:06:16.394Z,53.50
2022-10-11T17:08:43.118Z,53.60
2022-10-11T17:11:09.873Z,53.70
2022-10-11T17:13:39.209Z,53.80
2022-10-11T17:16:06.712Z,54.50
2022-10-11T17:18:33.774Z,54.00
2022-10-11T17:21:11.937Z,54.00
2022-10-11T17:23:42.160Z,54.10
2022-10-11T17:26:14.939Z,54.40
2022-10-11T17:28:41.952Z,54.60
2022-10-11T17:31:09.509Z,54.90
2022-10-11T17:33:36.770Z,55.00
2022-10-11T17:36:14.356Z,55.90
2022-10-11T17:38:41.203Z,55.30
2022-10-11T17:41:09.091Z,55.50
2022-10-11T17:43:36.267Z,55.70
2022-10-11T17:46:08.883Z,55.90
2022-10-11T17:48:37.126Z,56.10
2022-10-11T17:51:11.870Z,56.30
2022-10-11T17:53:39.078Z,56.30
2022-10-11T17:56:09.624Z,56.30
2022-10-11T17:58:36.802Z,56.60
2022-10-11T18:01:15.555Z,56.70
2022-10-11T18:03:43.554Z,56.80
2022-10-11T18:06:12.296Z,56.80
2022-10-11T18:08:40.929Z,57.00
2022-10-11T18:11:21.424Z,57.00
2022-10-11T18:13:50.097Z,57.10
2022-10-11T18:16:18.801Z,57.20
2022-10-11T18:18:46.712Z,57.40
2022-10-11T18:21:13.739Z,57.50
2022-10-11T18:23:41.030Z,57.80
2022-10-11T18:26:16.483Z,57.80
2022-10-11T18:28:44.243Z,58.00
2022-10-11T18:31:14.715Z,58.00
2022-10-11T18:33:46.269Z,58.20
2022-10-11T18:36:16.329Z,58.30
2022-10-11T18:38:46.507Z,58.20
2022-10-11T18:41:19.789Z,58.20
2022-10-11T18:43:51.976Z,58.40
2022-10-11T18:46:20.031Z,58.40
2022-10-11T18:48:48.941Z,58.50
2022-10-11T18:51:24.146Z,58.70
2022-10-11T18:53:57.752Z,58.90
2022-10-11T18:56:25.232Z,58.90
2022-10-11T18:58:54.559Z,59.00
2022-10-11T19:01:28.811Z,59.10
2022-10-11T19:03:58.620Z,59.20
2022-10-11T19:06:47.981Z,59.30
2022-10-11T19:09:27.686Z,59.40
2022-10-11T19:11:56.518Z,59.40
2022-10-11T19:14:26.171Z,59.50
2022-10-11T19:16:53.809Z,59.60
2022-10-11T19:19:23.868Z,59.70
2022-10-11T19:21:51.299Z,59.70
2022-10-11T19:24:20.403Z,59.70
2022-10-11T19:26:47.640Z,59.80
2022-10-11T19:29:19.009Z,59.90
2022-10-11T19:31:48.414Z,60.00
2022-10-11T19:34:16.274Z,60.00
2022-10-11T19:36:43.476Z,60.10
2022-10-11T19:39:14.865Z,60.20
2022-10-11T19:41:42.368Z,60.40
2022-10-11T19:44:09.510Z,60.30
2022-10-11T19:46:51.096Z,60.30
2022-10-11T19:49:24.145Z,60.50
2022-10-11T19:51:51.559Z,60.60
2022-10-11T19:54:18.976Z,60.70
2022-10-11T19:56:54.403Z,60.90
2022-10-11T19:59:21.222Z,60.90
2022-10-11T20:01:52.304Z,60.90
2022-10-11T20:04:51.115Z,60.90
2022-10-11T20:07:07.961Z,61.00
2022-10-11T20:09:34.842Z,61.00
2022-10-11T20:12:01.632Z,61.10
2022-10-11T20:14:30.920Z,61.30
2022-10-11T20:17:05.181Z,61.30
2022-10-11T20:19:32.085Z,61.20
2022-10-11T20:21:59.948Z,61.40
2022-10-11T20:24:28.985Z,61.50
2022-10-11T20:26:55.809Z,61.60
2022-10-11T20:29:25.222Z,61.70
2022-10-11T20:31:52.097Z,61.90
2022-10-11T20:34:18.804Z,61.70
2022-10-11T20:36:48.951Z,61.90
2022-10-11T20:39:19.525Z,62.00
2022-10-11T20:41:46.261Z,62.00
2022-10-11T20:44:16.211Z,62.10
2022-10-11T20:46:43.120Z,62.10
2022-10-11T20:49:12.006Z,62.00
2022-10-11T20:51:41.759Z,62.20
2022-10-11T20:54:09.271Z,63.40
2022-10-11T20:56:37.881Z,63.40
2022-10-11T20:59:06.115Z,63.50
2022-10-11T21:01:37.165Z,63.60
2022-10-11T21:04:05.602Z,63.70
2022-10-11T21:06:33.419Z,63.70
2022-10-11T21:09:01.043Z,63.80
2022-10-11T21:11:29.735Z,63.80
2022-10-11T21:13:57.880Z,64.00
2022-10-11T21:16:25.401Z,64.00
2022-10-11T21:18:54.227Z,63.90
2022-10-11T21:21:21.851Z,64.00
2022-10-11T21:23:48.635Z,64.20
2022-10-11T21:26:19.112Z,64.20
2022-10-11T21:28:46.768Z,64.30
2022-10-11T21:31:16.784Z,64.40
2022-10-11T21:33:44.363Z,64.50
2022-10-11T21:36:24.385Z,64.40
2022-10-11T21:38:52.549Z,64.50
2022-10-11T21:41:21.976Z,64.60
2022-10-11T21:43:49.408Z,64.80
2022-10-11T21:47:05.579Z,64.70
2022-10-11T21:49:22.735Z,64.80
2022-10-11T21:51:49.607Z,64.70
2022-10-11T21:54:16.720Z,64.80
2022-10-11T21:56:43.427Z,64.90
2022-10-11T21:59:12.345Z,65.80
2022-10-11T22:01:40.315Z,65.10
2022-10-11T22:04:07.623Z,65.10
2022-10-11T22:06:34.855Z,65.20
2022-10-11T22:09:01.776Z,65.20
2022-10-11T22:11:28.804Z,65.10
2022-10-11T22:13:55.612Z,65.20
2022-10-11T22:16:22.386Z,65.20
2022-10-11T22:18:49.335Z,65.20
2022-10-11T22:21:19.171Z,65.30
2022-10-11T22:23:48.450Z,65.40
2022-10-11T22:26:17.787Z,65.30
2022-10-11T22:28:46.761Z,65.40
2022-10-11T22:31:14.810Z,65.40
2022-10-11T22:33:42.159Z,65.40
2022-10-11T22:36:10.600Z,65.50
2022-10-11T22:38:39.327Z,65.40
2022-10-11T22:41:06.643Z,65.50
2022-10-11T22:43:34.143Z,65.60
2022-10-11T22:46:01.208Z,65.70
2022-10-11T22:48:28.204Z,66.40
2022-10-11T22:50:55.222Z,65.70
2022-10-11T22:53:23.302Z,65.80
2022-10-11T22:55:50.002Z,65.90
2022-10-11T22:58:16.736Z,65.90
2022-10-11T23:00:45.927Z,66.00
2022-10-11T23:03:17.774Z,66.10
2022-10-11T23:05:53.547Z,66.10
2022-10-11T23:08:20.413Z,66.10
2022-10-11T23:10:47.257Z,66.10
2022-10-11T23:13:14.033Z,66.00
2022-10-11T23:15:41.212Z,66.30
2022-10-11T23:18:08.053Z,66.20
2022-10-11T23:20:34.774Z,66.20
2022-10-11T23:23:01.607Z,66.30
2022-10-11T23:25:28.386Z,66.30
2022-10-11T23:27:55.174Z,66.30
2022-10-11T23:30:21.896Z,66.50
2022-10-11T23:32:48.660Z,66.40
2022-10-11T23:35:15.443Z,66.50
2022-10-11T23:37:42.183Z,66.50
2022-10-11T23:40:09.280Z,66.40
2022-10-11T23:42:36.177Z,66.50
2022-10-11T23:45:03.025Z,66.50
2022-10-11T23:47:30.091Z,66.50
2022-10-11T23:49:57.173Z,66.60
2022-10-11T23:52:24.079Z,66.60
2022-10-11T23:54:50.855Z,66.60
2022-10-11T23:57:17.639Z,66.70
2022-10-11T23:59:44.457Z,66.80
